Portada
METAR-TAF:

METAR-TAF

Aeroports :

Rasht, Iran

latitud: 37-12N, longitud: 049-38E, altitud: -7 m

Observació

L'informe es va fer fa 24 minuts, a les 18:00 UTC
Vent calma
Temperatura 22°C
Humitat 60%
Pressió 1021 hPa
Visibilitat 10 km o més
Escasses núvols a una alçada de 2500 ft, Cumulonimbus.
Núvols disperses a una alçada de 8000 ft
Núvols disperses a una alçada de 16000 ft

METAR: OIGG 261800Z 00000KT 9999 FEW025CB SCT080 SCT160 22/14 Q1021

Hora: 22:54 (18:24 UTC)


TAF: manca

Observacions i pronòstics meteorològics de més de 4000 aeroports (METAR i TAF).

Les estacions disponibles són els punts grocs i vermells al mapa.

Posi el ratolí al punt desitjat per veure el nom de l'estació.

Feu clic per veure les observacions i els pronòstics meteorològics.

Per canviar el mapa: feu clic els botons verds amb una creu de color negre per apropar; al botó verd amb un guió per allunyar la imatge; o en les fletxes verdes per a mapes adjacents.


METAR-TAF: